Airfield :
LOGIN :

Register | Disclaimer

   EN    FR    IT 

 










Legend :    VFR   Marginal VFR   IFR   Intensive IFR   Very Intensive IFR
Visi :
Ceiling :
>= 8 km
>= 3000ft
5 to 8 km
1000 to 3000 ft
1500m to 5 km
500 to 1000 ft
800 to 1500m
200 to 500 ft
< 800m
< 200 ft
Symbols :   Thunderstorms  Fog  Heavy snow  Heavy precipitations  Wind > 20 kt
SIGMETs :     Misc.  Thunderstorms  Icing  Turbulence  Mountain Waves  Volcanic Ashes







- Airport Elevation : 1910 ft
- IATA code : RDZ
- Download approach charts


LFCR - Rodez

CURRENT METAR :
  • 300030Z AUTO 12008KT 9999 NSC 10/04 Q1025 NOSIG

EXPIRED METARs :
  • 300000Z AUTO 11006KT 9999 NSC 11/04 Q1025 NOSIG
  • 292330Z AUTO 11004KT 9999 NSC 09/05 Q1026 NOSIG
  • 292300Z AUTO 17003KT 9999 NSC 08/03 Q1026 NOSIG
  • 292230Z AUTO 11003KT 9999 NSC 09/05 Q1026 NOSIG
  • 292200Z AUTO 16003KT 9999 NSC 07/04 Q1026 NOSIG

TAF TAF LFCR
Valid from the 30 at 00:00 until the 31 at 00:00 UTC


292300Z 3000/3024 VRB02KT CAVOK
BECMG 3009/3012 14012KT
TEMPO 3015/3024 14015G25KT
No reported NOTAMs for that airfield.



MET'MAP, your aeronautical weather chart ! - Copyright ORBIFLY December 2007 - Disclaimer

ORBIFLY MET'MAP TEAM :

Programming & Development : Alexandra Zaïnal
Concept & Development : Baudouin d'Aumeries
Co-Development & Prog : Marc-Olivier Méhu
Technical & hardware support : Manuel Goepfert

Contact : metmap@orbifly.com




SOURCES & CREDITS :

   NOAA